createdAt,value
2023-01-18T00:05:14.192Z,97579.72
2023-01-18T00:07:42.171Z,97559.81
2023-01-18T00:12:59.878Z,97572.63
2023-01-18T00:56:07.567Z,97595.56
2023-01-18T00:58:39.053Z,97608.03
2023-01-18T01:01:14.931Z,97611.88
2023-01-18T01:04:01.215Z,97676.88
2023-01-18T01:06:47.056Z,97619.38
2023-01-18T01:12:21.458Z,97672.31
2023-01-18T01:15:07.214Z,97676.38
2023-01-18T01:17:56.618Z,97646.88
2023-01-18T01:20:44.074Z,97735.56
2023-01-18T01:23:29.900Z,97739.06
2023-01-18T01:26:09.204Z,97738.22
2023-01-18T01:28:44.139Z,97726.88
2023-01-18T01:31:13.316Z,97758.31
2023-01-18T01:33:40.661Z,97724.72
2023-01-18T01:36:13.281Z,97771.81
2023-01-18T01:38:43.881Z,97794.31
2023-01-18T01:41:20.876Z,97744.44
2023-01-18T01:43:51.178Z,97800.16
2023-01-18T01:46:41.442Z,97807.25
2023-01-18T01:49:32.960Z,97759.94
2023-01-18T01:52:07.764Z,97822.00
2023-01-18T01:54:37.508Z,97834.91
2023-01-18T01:57:12.702Z,97793.88
2023-01-18T02:00:00.880Z,97793.88
2023-01-18T02:02:30.764Z,97834.44
2023-01-18T02:04:59.661Z,97797.94
2023-01-18T02:07:26.561Z,97847.31
2023-01-18T02:09:53.897Z,97834.53
2023-01-18T02:12:20.660Z,97837.16
2023-01-18T02:14:47.857Z,97838.84
2023-01-18T02:17:17.423Z,97888.16
2023-01-18T02:20:07.001Z,97865.94
2023-01-18T02:22:45.940Z,97898.66
2023-01-18T02:25:40.630Z,97875.69
2023-01-18T02:28:21.343Z,97866.31
2023-01-18T02:30:57.054Z,97909.78
2023-01-18T02:33:34.435Z,97926.53
2023-01-18T02:36:03.556Z,97914.22
2023-01-18T02:38:39.615Z,97903.84
2023-01-18T02:41:18.076Z,97936.19
2023-01-18T02:44:05.113Z,97946.84
2023-01-18T02:46:36.199Z,97913.63
2023-01-18T02:49:13.204Z,97910.16
2023-01-18T02:51:39.896Z,97903.31
2023-01-18T02:54:09.651Z,97938.03
2023-01-18T02:56:53.263Z,97939.56
2023-01-18T02:59:53.260Z,97947.28
2023-01-18T03:02:23.214Z,97987.19
2023-01-18T03:04:54.813Z,97976.91
2023-01-18T03:07:29.809Z,97948.13
2023-01-18T03:09:58.598Z,97929.53
2023-01-18T03:12:25.248Z,97994.72
2023-01-18T03:15:30.784Z,97990.31
2023-01-18T03:18:05.400Z,97977.00
2023-01-18T03:20:38.053Z,97942.91
2023-01-18T03:23:40.799Z,97967.44
2023-01-18T03:26:10.767Z,97947.22
2023-01-18T03:29:02.939Z,97960.44
2023-01-18T03:32:08.250Z,97997.13
2023-01-18T03:34:53.844Z,98002.91
2023-01-18T03:37:31.096Z,98010.84
2023-01-18T03:40:02.655Z,98011.81
2023-01-18T03:42:37.439Z,97975.03
2023-01-18T03:45:17.682Z,97944.78
2023-01-18T03:47:44.730Z,97925.78
2023-01-18T03:50:11.412Z,97973.91
2023-01-18T03:52:50.931Z,97996.16
2023-01-18T03:55:40.440Z,98016.91
2023-01-18T03:58:12.902Z,98008.69
2023-01-18T04:00:41.197Z,98039.44
2023-01-18T04:03:08.437Z,98013.63
2023-01-18T04:05:35.655Z,98014.31
2023-01-18T04:08:02.693Z,98056.63
2023-01-18T04:10:29.589Z,97989.78
2023-01-18T04:12:56.813Z,98058.66
2023-01-18T04:15:24.152Z,98028.34
2023-01-18T04:17:53.520Z,98007.16
2023-01-18T04:20:20.382Z,98026.72
2023-01-18T04:22:52.552Z,98072.69
2023-01-18T04:25:19.668Z,98095.59
2023-01-18T04:27:46.568Z,98104.66
2023-01-18T04:30:13.555Z,98123.16
2023-01-18T04:32:46.477Z,98078.28
2023-01-18T04:35:14.108Z,98135.91
2023-01-18T04:37:41.098Z,98089.19
2023-01-18T04:40:09.027Z,98100.91
2023-01-18T04:42:35.927Z,98120.50
2023-01-18T04:45:02.654Z,98107.25
2023-01-18T04:47:29.397Z,98134.03
2023-01-18T04:49:57.651Z,98106.41
2023-01-18T04:52:26.855Z,98090.81
2023-01-18T04:54:53.843Z,98062.44
2023-01-18T04:57:21.023Z,98085.72
2023-01-18T04:59:47.885Z,98105.63
2023-01-18T05:02:15.527Z,98060.56
2023-01-18T05:04:43.904Z,98127.97
2023-01-18T05:07:11.400Z,98105.09
2023-01-18T05:09:38.145Z,98077.84
2023-01-18T05:12:05.006Z,98104.84
2023-01-18T05:14:31.744Z,98061.22
2023-01-18T05:16:58.461Z,98105.88
2023-01-18T05:19:30.138Z,98054.59
2023-01-18T05:21:57.059Z,98135.06
2023-01-18T05:24:23.830Z,98100.78
2023-01-18T05:26:50.551Z,98125.63
2023-01-18T05:29:18.058Z,98090.06
2023-01-18T05:31:45.012Z,98153.22
2023-01-18T05:34:11.874Z,98156.06
2023-01-18T05:36:38.613Z,98150.88
2023-01-18T05:39:05.484Z,98105.44
2023-01-18T05:41:32.224Z,98143.13
2023-01-18T05:43:58.936Z,98149.06
2023-01-18T05:46:25.705Z,98133.28
2023-01-18T05:48:56.994Z,98118.97
2023-01-18T05:51:23.725Z,98169.00
2023-01-18T05:53:50.715Z,98201.91
2023-01-18T05:56:17.833Z,98142.81
2023-01-18T05:58:44.600Z,98125.66
2023-01-18T06:01:11.485Z,98165.44
2023-01-18T06:03:38.266Z,98167.00
2023-01-18T06:06:05.184Z,98181.47
2023-01-18T06:08:32.057Z,98196.38
2023-01-18T06:10:59.792Z,98211.44
2023-01-18T06:13:28.610Z,98204.97
2023-01-18T06:15:56.891Z,98173.97
2023-01-18T06:18:24.812Z,98243.72
2023-01-18T06:21:01.157Z,98202.00
2023-01-18T06:23:29.033Z,98262.91
2023-01-18T06:25:55.943Z,98221.88
2023-01-18T06:28:26.148Z,98182.69
2023-01-18T06:30:55.118Z,98258.97
2023-01-18T06:33:23.332Z,98218.78
2023-01-18T06:35:50.137Z,98240.00
2023-01-18T06:38:16.999Z,98226.22
2023-01-18T06:40:44.072Z,98217.63
2023-01-18T06:43:14.472Z,98291.44
2023-01-18T06:45:42.040Z,98221.47
2023-01-18T06:48:09.052Z,98264.66
2023-01-18T06:50:35.826Z,98226.28
2023-01-18T06:53:02.529Z,98290.00
2023-01-18T06:55:29.594Z,98242.97
2023-01-18T06:57:57.308Z,98224.22
2023-01-18T07:00:26.999Z,98290.13
2023-01-18T07:02:54.215Z,98312.97
2023-01-18T07:05:21.510Z,98301.09
2023-01-18T07:07:48.562Z,98293.16
2023-01-18T07:10:16.581Z,98320.41
2023-01-18T07:12:46.524Z,98280.19
2023-01-18T07:15:21.572Z,98269.06
2023-01-18T07:17:51.051Z,98284.31
2023-01-18T07:20:18.538Z,98273.84
2023-01-18T07:22:45.378Z,98320.00
2023-01-18T07:25:13.670Z,98320.66
2023-01-18T07:27:43.303Z,98341.19
2023-01-18T07:30:13.332Z,98316.13
2023-01-18T07:32:40.902Z,98317.25
2023-01-18T07:35:07.907Z,98319.72
2023-01-18T07:37:36.199Z,98386.84
2023-01-18T07:40:03.549Z,98346.66
2023-01-18T07:42:30.313Z,98394.13
2023-01-18T07:44:57.105Z,98395.97
2023-01-18T07:47:23.797Z,98352.78
2023-01-18T07:49:50.589Z,98359.56
2023-01-18T07:52:17.280Z,98347.75
2023-01-18T07:54:44.052Z,98343.97
2023-01-18T07:57:10.783Z,98388.00
2023-01-18T07:59:39.961Z,98351.28
2023-01-18T08:02:08.840Z,98373.34
2023-01-18T08:04:35.629Z,98352.22
2023-01-18T08:07:02.502Z,98366.69
2023-01-18T08:09:29.452Z,98384.81
2023-01-18T08:11:56.272Z,98431.03
2023-01-18T08:14:23.005Z,98385.72
2023-01-18T08:16:49.908Z,98402.56
2023-01-18T08:19:17.457Z,98391.78
2023-01-18T08:21:45.340Z,98421.78
2023-01-18T08:24:13.787Z,98394.00
2023-01-18T08:26:40.499Z,98375.03
2023-01-18T08:29:07.256Z,98435.41
2023-01-18T08:31:34.169Z,98401.56
2023-01-18T08:34:02.411Z,98404.38
2023-01-18T08:36:29.122Z,98408.63
2023-01-18T08:38:59.610Z,98470.75
2023-01-18T08:41:30.985Z,98423.81
2023-01-18T08:43:59.384Z,98443.81
2023-01-18T08:46:26.220Z,98440.06
2023-01-18T08:48:54.947Z,98476.13
2023-01-18T08:51:23.375Z,98428.69
2023-01-18T08:53:57.422Z,98498.91
2023-01-18T08:56:25.088Z,98496.69
2023-01-18T08:58:58.296Z,98466.94
2023-01-18T09:01:25.364Z,98412.59
2023-01-18T09:03:56.751Z,98520.34
2023-01-18T09:09:06.017Z,98533.44
2023-01-18T09:11:32.765Z,98507.09
2023-01-18T09:14:01.436Z,98492.97
2023-01-18T09:16:29.760Z,98496.38
2023-01-18T09:18:57.642Z,98529.72
2023-01-18T09:21:24.784Z,98515.06
2023-01-18T09:23:51.462Z,98515.78
2023-01-18T09:26:20.819Z,98562.22
2023-01-18T09:28:51.173Z,98555.19
2023-01-18T09:31:19.511Z,98565.78
2023-01-18T09:33:53.197Z,98555.00
2023-01-18T09:36:24.035Z,98552.78
2023-01-18T09:38:51.000Z,98567.31
2023-01-18T09:41:44.457Z,98581.44
2023-01-18T09:44:28.990Z,98540.66
2023-01-18T09:47:02.173Z,98586.19
2023-01-18T09:49:41.034Z,98625.66
2023-01-18T09:52:26.519Z,98625.25
2023-01-18T09:58:26.908Z,98639.59
2023-01-18T10:01:01.411Z,98574.72
2023-01-18T10:03:57.308Z,98645.94
2023-01-18T10:06:48.430Z,98645.28
2023-01-18T10:09:18.312Z,98590.78
2023-01-18T10:11:59.953Z,98665.63
2023-01-18T10:14:54.973Z,98641.16
2023-01-18T10:17:26.295Z,98676.34
2023-01-18T10:19:53.145Z,98708.06
2023-01-18T10:22:30.220Z,98658.00
2023-01-18T10:25:00.966Z,98695.38
2023-01-18T10:27:48.957Z,98723.16
2023-01-18T10:30:49.105Z,98667.72
2023-01-18T10:33:20.576Z,98726.13
2023-01-18T10:35:51.590Z,98737.59
2023-01-18T10:38:22.705Z,98746.88
2023-01-18T10:40:57.816Z,98693.22
2023-01-18T10:43:26.652Z,98776.31
2023-01-18T10:45:54.666Z,98740.28
2023-01-18T10:48:21.328Z,98776.22
2023-01-18T10:50:53.357Z,98757.84
2023-01-18T10:53:37.168Z,98786.41
2023-01-18T10:56:05.755Z,98717.69
2023-01-18T10:58:47.024Z,98750.75
2023-01-18T11:01:22.758Z,98780.94
2023-01-18T11:03:55.552Z,98757.97
2023-01-18T11:06:24.551Z,98797.47
2023-01-18T11:08:52.215Z,98782.34
2023-01-18T11:11:48.590Z,98802.19
2023-01-18T11:14:25.956Z,98802.97
2023-01-18T11:17:00.827Z,98774.50
2023-01-18T11:19:28.452Z,98746.19
2023-01-18T11:21:55.841Z,98753.44
2023-01-18T11:24:32.251Z,98756.31
2023-01-18T11:27:11.322Z,98829.88
2023-01-18T11:29:43.298Z,98783.16
2023-01-18T11:32:25.873Z,98830.50
2023-01-18T11:34:59.923Z,98800.69
2023-01-18T11:37:37.036Z,98848.72
2023-01-18T11:40:28.233Z,98838.47
2023-01-18T11:43:09.403Z,98794.97
2023-01-18T11:46:03.685Z,98826.28
2023-01-18T11:48:38.784Z,98764.38
2023-01-18T11:51:45.925Z,98839.53
2023-01-18T11:54:47.127Z,98811.50
2023-01-18T11:57:14.497Z,98853.41
2023-01-18T11:59:45.742Z,98806.94
2023-01-18T12:02:24.581Z,98851.97
2023-01-18T12:05:10.744Z,98855.91
2023-01-18T12:07:37.422Z,98859.34
2023-01-18T12:10:10.622Z,98844.38
2023-01-18T12:12:37.468Z,98850.81
2023-01-18T12:15:04.136Z,98853.44
2023-01-18T12:18:13.512Z,98836.28
2023-01-18T12:20:43.621Z,98857.09
2023-01-18T12:23:13.579Z,98859.34
2023-01-18T12:26:06.854Z,98862.91
2023-01-18T12:29:15.341Z,98854.66
2023-01-18T12:32:08.965Z,98859.56
2023-01-18T12:34:47.178Z,98870.38
2023-01-18T12:37:47.689Z,98861.53
2023-01-18T12:40:31.682Z,98880.03
2023-01-18T12:43:10.623Z,98885.09
2023-01-18T12:45:41.668Z,98859.38
2023-01-18T12:48:13.401Z,98881.13
2023-01-18T12:50:40.904Z,98885.38
2023-01-18T12:53:18.531Z,98886.31
2023-01-18T12:55:50.660Z,98879.00
2023-01-18T12:58:22.724Z,98900.94
2023-01-18T13:00:54.163Z,98883.78
2023-01-18T13:03:28.195Z,98855.44
2023-01-18T13:05:59.508Z,98896.53
2023-01-18T13:08:32.061Z,98908.84
2023-01-18T13:11:14.913Z,98867.75
2023-01-18T13:13:45.087Z,98869.69
2023-01-18T13:16:39.712Z,98947.75
2023-01-18T13:19:11.162Z,98898.84
2023-01-18T13:21:53.573Z,98959.09
2023-01-18T13:24:39.042Z,98974.81
2023-01-18T13:27:11.204Z,98941.16
2023-01-18T13:29:39.229Z,98995.72
2023-01-18T13:32:38.002Z,98993.09
2023-01-18T13:35:20.409Z,98974.25
2023-01-18T13:37:53.387Z,98994.16
2023-01-18T13:40:42.065Z,98979.38
2023-01-18T13:43:32.956Z,98982.50
2023-01-18T13:46:21.476Z,98971.28
2023-01-18T13:48:51.240Z,98970.00
2023-01-18T13:51:42.827Z,98972.00
2023-01-18T13:54:18.320Z,98966.69
2023-01-18T13:57:06.124Z,98961.94
2023-01-18T13:59:36.048Z,98963.22
2023-01-18T14:02:27.847Z,98916.41
2023-01-18T14:05:03.875Z,98978.44
2023-01-18T14:07:41.398Z,98972.03
2023-01-18T14:10:23.155Z,98929.81
2023-01-18T14:12:52.630Z,98981.16
2023-01-18T14:15:40.863Z,98997.38
2023-01-18T14:18:28.724Z,99006.16
2023-01-18T14:21:21.375Z,98995.34
2023-01-18T14:24:16.025Z,99011.28
2023-01-18T14:26:45.405Z,98975.91
2023-01-18T14:29:21.652Z,98986.84
2023-01-18T14:31:52.968Z,98971.97
2023-01-18T14:34:37.255Z,98988.16
2023-01-18T14:37:23.192Z,98975.31
2023-01-18T14:40:05.588Z,99011.69
2023-01-18T14:42:35.207Z,98956.94
2023-01-18T14:45:04.626Z,98964.09
2023-01-18T14:47:33.766Z,98971.03
2023-01-18T14:50:04.479Z,98973.53
2023-01-18T14:52:34.290Z,99032.47
2023-01-18T14:55:01.391Z,99034.72
2023-01-18T14:57:28.228Z,99027.34
2023-01-18T15:00:03.025Z,99063.88
2023-01-18T15:02:38.432Z,98986.00
2023-01-18T15:05:11.435Z,99073.03
2023-01-18T15:07:39.742Z,99056.47
2023-01-18T15:10:08.689Z,99051.19
2023-01-18T15:12:36.357Z,99037.69
2023-01-18T15:15:21.923Z,99040.78
2023-01-18T15:17:50.390Z,99016.53
2023-01-18T15:20:17.500Z,99041.94
2023-01-18T15:22:44.503Z,99060.63
2023-01-18T15:25:26.201Z,99050.75
2023-01-18T15:27:54.019Z,99026.63
2023-01-18T15:30:23.938Z,99043.72
2023-01-18T15:32:55.524Z,99066.50
2023-01-18T15:35:25.531Z,99100.06
2023-01-18T15:37:52.432Z,99039.94
2023-01-18T15:40:19.060Z,99110.16
2023-01-18T15:42:59.559Z,99068.63
2023-01-18T15:45:30.691Z,99116.09
2023-01-18T15:48:01.786Z,99056.28
2023-01-18T15:50:37.105Z,99071.09
2023-01-18T15:53:06.441Z,99066.91
2023-01-18T15:55:40.295Z,99061.66
2023-01-18T15:58:12.897Z,99036.25
2023-01-18T16:00:45.915Z,99112.06
2023-01-18T16:03:20.409Z,99091.25
2023-01-18T16:06:02.504Z,99075.41
2023-01-18T16:08:29.314Z,99075.56
2023-01-18T16:10:57.430Z,99130.31
2023-01-18T16:13:32.291Z,99105.28
2023-01-18T16:16:04.978Z,99134.00
2023-01-18T16:18:32.028Z,99075.22
2023-01-18T16:21:01.605Z,99131.06
2023-01-18T16:23:29.444Z,99102.09
2023-01-18T16:26:03.296Z,99100.75
2023-01-18T16:28:30.068Z,99099.75
2023-01-18T16:30:57.027Z,99128.78
2023-01-18T16:33:23.955Z,99116.28
2023-01-18T16:35:50.992Z,99132.16
2023-01-18T16:38:20.171Z,99145.63
2023-01-18T16:40:49.856Z,99121.94
2023-01-18T16:43:19.926Z,99162.00
2023-01-18T16:45:49.263Z,99153.56
2023-01-18T16:48:18.515Z,99149.47
2023-01-18T16:50:45.392Z,99146.91
2023-01-18T16:53:12.615Z,99160.16
2023-01-18T16:55:39.914Z,99157.16
2023-01-18T16:58:06.853Z,99155.34
2023-01-18T17:01:07.447Z,99152.03
2023-01-18T17:03:36.136Z,99160.56
2023-01-18T17:06:03.150Z,99147.06
2023-01-18T17:08:29.882Z,99111.53
2023-01-18T17:10:56.740Z,99160.66
2023-01-18T17:13:24.022Z,99177.56
2023-01-18T17:15:52.358Z,99141.47
2023-01-18T17:18:25.871Z,99138.13
2023-01-18T17:20:53.305Z,99155.22
2023-01-18T17:23:20.245Z,99151.97
2023-01-18T17:25:47.521Z,99178.94
2023-01-18T17:28:17.873Z,99139.00
2023-01-18T17:30:48.966Z,99207.88
2023-01-18T17:33:22.141Z,99169.25
2023-01-18T17:35:52.735Z,99208.63
2023-01-18T17:38:26.347Z,99198.81
2023-01-18T17:40:54.934Z,99187.91
2023-01-18T17:43:32.686Z,99165.28
2023-01-18T17:46:03.746Z,99153.59
2023-01-18T17:48:30.576Z,99195.94
2023-01-18T17:50:57.348Z,99153.53
2023-01-18T17:53:24.040Z,99204.38
2023-01-18T17:55:50.708Z,99155.41
2023-01-18T17:58:17.455Z,99223.34
2023-01-18T18:00:44.801Z,99180.75
2023-01-18T18:03:11.503Z,99190.38
2023-01-18T18:05:38.330Z,99181.31
2023-01-18T18:08:05.229Z,99182.03
2023-01-18T18:10:31.925Z,99201.31
2023-01-18T18:12:59.652Z,99240.94
2023-01-18T18:15:26.547Z,99212.13
2023-01-18T18:17:53.266Z,99179.50
2023-01-18T18:20:21.989Z,99221.53
2023-01-18T18:22:49.031Z,99217.00
2023-01-18T18:25:15.817Z,99261.00
2023-01-18T18:27:46.789Z,99236.97
2023-01-18T18:30:15.178Z,99248.09
2023-01-18T18:32:41.882Z,99253.94
2023-01-18T18:35:24.496Z,99215.28
2023-01-18T18:37:53.727Z,99205.91
2023-01-18T18:40:20.524Z,99273.88
2023-01-18T18:43:00.812Z,99191.56
2023-01-18T18:45:28.585Z,99246.91
2023-01-18T18:47:55.389Z,99260.53
2023-01-18T18:50:22.134Z,99253.19
2023-01-18T18:52:48.908Z,99275.03
2023-01-18T18:55:15.849Z,99242.03
2023-01-18T18:57:42.619Z,99271.78
2023-01-18T19:00:09.967Z,99216.56
2023-01-18T19:02:43.499Z,99254.91
2023-01-18T19:05:13.199Z,99297.28
2023-01-18T19:07:40.119Z,99265.25
2023-01-18T19:10:07.480Z,99232.22
2023-01-18T19:12:34.203Z,99263.66
2023-01-18T19:15:01.174Z,99265.59
2023-01-18T19:17:31.042Z,99265.78
2023-01-18T19:19:58.593Z,99282.75
2023-01-18T19:22:25.623Z,99271.88
2023-01-18T19:24:52.903Z,99326.88
2023-01-18T19:27:21.264Z,99249.09
2023-01-18T19:29:48.091Z,99277.03
2023-01-18T19:32:15.528Z,99253.44
2023-01-18T19:34:42.216Z,99333.03
2023-01-18T19:37:08.941Z,99277.25
2023-01-18T19:39:35.691Z,99256.03
2023-01-18T19:42:02.585Z,99250.00
2023-01-18T19:44:29.736Z,99331.28
2023-01-18T19:46:57.323Z,99249.22
2023-01-18T19:49:27.952Z,99309.03
2023-01-18T19:51:55.836Z,99287.59
2023-01-18T19:54:22.777Z,99309.81
2023-01-18T19:56:49.722Z,99294.50
2023-01-18T19:59:16.688Z,99280.22
2023-01-18T20:01:43.747Z,99247.75
2023-01-18T20:04:13.226Z,99230.69
2023-01-18T20:06:43.486Z,99239.09
2023-01-18T20:09:19.538Z,99258.03
2023-01-18T20:11:48.005Z,99280.16
2023-01-18T20:14:15.228Z,99280.16
2023-01-18T20:16:43.888Z,99290.38
2023-01-18T20:19:13.543Z,99350.72
2023-01-18T20:21:40.278Z,99291.38
2023-01-18T20:24:07.414Z,99344.78
2023-01-18T20:26:37.011Z,99313.38
2023-01-18T20:29:08.938Z,99355.78
2023-01-18T20:31:37.246Z,99279.53
2023-01-18T20:34:05.276Z,99359.22
2023-01-18T20:36:34.961Z,99305.72
2023-01-18T20:39:02.369Z,99342.09
2023-01-18T20:41:29.277Z,99289.69
2023-01-18T20:43:55.989Z,99284.78
2023-01-18T20:46:22.782Z,99303.38
2023-01-18T20:48:49.835Z,99290.50
2023-01-18T20:51:18.055Z,99357.66
2023-01-18T20:53:44.870Z,99266.88
2023-01-18T20:56:27.832Z,99296.50
2023-01-18T20:58:55.475Z,99271.09
2023-01-18T21:01:22.428Z,99302.38
2023-01-18T21:03:56.171Z,99356.19
2023-01-18T21:06:23.289Z,99294.09
2023-01-18T21:08:57.724Z,99322.34
2023-01-18T21:11:28.251Z,99315.53
2023-01-18T21:13:56.577Z,99305.09
2023-01-18T21:16:23.840Z,99350.19
2023-01-18T21:18:52.780Z,99277.13
2023-01-18T21:21:20.229Z,99313.75
2023-01-18T21:23:47.221Z,99321.34
2023-01-18T21:26:13.952Z,99322.47
2023-01-18T21:28:40.940Z,99291.78
2023-01-18T21:31:08.354Z,99347.69
2023-01-18T21:33:35.654Z,99307.97
2023-01-18T21:36:12.377Z,99325.03
2023-01-18T21:38:42.827Z,99323.16
2023-01-18T21:41:29.215Z,99344.91
2023-01-18T21:44:14.310Z,99309.66
2023-01-18T21:46:52.018Z,99318.97
2023-01-18T21:52:43.481Z,99307.97
2023-01-18T21:55:10.411Z,99293.59
2023-01-18T21:57:37.611Z,99334.34
2023-01-18T22:00:05.053Z,99360.06
2023-01-18T22:02:33.052Z,99315.78
2023-01-18T22:05:05.863Z,99305.69
2023-01-18T22:07:35.403Z,99371.66
2023-01-18T22:10:06.965Z,99370.81
2023-01-18T22:12:36.042Z,99369.91
2023-01-18T22:15:04.564Z,99380.94
2023-01-18T22:17:31.475Z,99304.53
2023-01-18T22:19:58.179Z,99302.94
2023-01-18T22:22:24.996Z,99369.25
2023-01-18T22:24:51.921Z,99329.44
2023-01-18T22:27:18.658Z,99332.00
2023-01-18T22:29:45.336Z,99326.06
2023-01-18T22:32:12.065Z,99365.16
2023-01-18T22:34:38.773Z,99350.81
2023-01-18T22:37:05.845Z,99378.19
2023-01-18T22:39:32.549Z,99312.81
2023-01-18T22:41:59.244Z,99362.72
2023-01-18T22:44:25.975Z,99340.78
2023-01-18T22:46:52.805Z,99329.63
2023-01-18T22:49:19.707Z,99363.75
2023-01-18T22:51:46.507Z,99333.88
2023-01-18T22:54:13.295Z,99340.81
2023-01-18T22:56:40.027Z,99334.41
2023-01-18T22:59:07.891Z,99325.25
2023-01-18T23:01:34.580Z,99359.91
2023-01-18T23:04:03.324Z,99364.09
2023-01-18T23:06:42.316Z,99372.19
2023-01-18T23:09:10.768Z,99348.09
2023-01-18T23:11:37.721Z,99332.72
2023-01-18T23:14:23.878Z,99333.09
2023-01-18T23:17:09.594Z,99377.19
2023-01-18T23:19:36.375Z,99305.09
2023-01-18T23:22:07.460Z,99328.84
2023-01-18T23:24:36.044Z,99361.97
2023-01-18T23:27:04.778Z,99320.38
2023-01-18T23:29:31.468Z,99358.75
2023-01-18T23:31:58.864Z,99328.06
2023-01-18T23:34:26.038Z,99354.38
2023-01-18T23:36:53.042Z,99301.75
2023-01-18T23:39:38.554Z,99381.47
2023-01-18T23:42:24.206Z,99377.22
2023-01-18T23:45:09.454Z,99358.69
2023-01-18T23:47:55.106Z,99374.06
2023-01-18T23:50:40.776Z,99312.13
2023-01-18T23:53:30.817Z,99363.16
2023-01-18T23:55:57.958Z,99310.50
2023-01-18T23:58:24.945Z,99363.84
